Time;durP1;ratioP1;P1;durP2;ratioP2;P2;SDS_P1;SDS_P2;PMS_P1;PMS_P2;Temp;Humidity;BMP_temperature;BMP_pressure;BME280_temperature;BME280_humidity;BME280_pressure;Samples;Min_cycle;Max_cycle;Signal;HPM_P1;HPM_P2
2023/11/08 00:01:34;;;;;;;30.38;17.33;;;;;;;;;;5017392;28;20045;-54
2023/11/08 00:03:59;;;;;;;30.55;18.05;;;;;;;;;;5025706;23;20059;-61
2023/11/08 00:06:26;;;;;;;27.90;16.05;;;;;;;;;;5003912;23;20148;-57
2023/11/08 00:08:52;;;;;;;29.02;16.50;;;;;;;;;;5017224;28;20065;-57
2023/11/08 00:13:59;;;;;;;34.50;18.92;;;;;;;;;;5032682;23;20464;-57
2023/11/08 00:16:25;;;;;;;29.10;16.15;;;;;;;;;;5026374;23;20049;-63
2023/11/08 00:18:50;;;;;;;27.45;15.13;;;;;;;;;;5036443;28;20033;-64
2023/11/08 00:21:16;;;;;;;24.40;13.60;;;;;;;;;;5037035;28;20017;-63
2023/11/08 00:23:42;;;;;;;19.23;13.88;;;;;;;;;;5036670;28;20396;-63
2023/11/08 00:26:07;;;;;;;22.40;14.40;;;;;;;;;;5037011;28;20036;-63
2023/11/08 00:28:33;;;;;;;24.35;14.63;;;;;;;;;;5018541;28;20097;-63
2023/11/08 00:30:58;;;;;;;23.60;14.80;;;;;;;;;;5036186;28;20445;-63
2023/11/08 00:33:24;;;;;;;23.27;15.38;;;;;;;;;;5036276;28;20032;-63
2023/11/08 00:35:50;;;;;;;25.13;14.63;;;;;;;;;;5036586;28;20053;-63
2023/11/08 00:38:15;;;;;;;22.65;14.75;;;;;;;;;;5036765;28;20429;-63
2023/11/08 00:40:42;;;;;;;25.35;14.90;;;;;;;;;;5036469;28;20049;-63
2023/11/08 00:43:08;;;;;;;24.25;14.20;;;;;;;;;;5036385;28;20526;-62
2023/11/08 00:45:36;;;;;;;22.60;14.25;;;;;;;;;;5036538;28;20382;-62
2023/11/08 00:48:02;;;;;;;23.50;13.60;;;;;;;;;;5036199;28;20033;-62
2023/11/08 00:50:29;;;;;;;20.42;13.68;;;;;;;;;;5018734;28;20117;-62
2023/11/08 00:52:55;;;;;;;23.58;14.38;;;;;;;;;;5035367;28;20051;-62
2023/11/08 00:55:20;;;;;;;23.75;13.77;;;;;;;;;;5036124;28;20089;-62
2023/11/08 00:57:46;;;;;;;21.73;13.60;;;;;;;;;;5051107;28;20022;-62
2023/11/08 01:00:11;;;;;;;21.52;13.18;;;;;;;;;;5035898;28;20449;-62
2023/11/08 01:02:37;;;;;;;18.77;13.13;;;;;;;;;;5036130;28;20061;-62
2023/11/08 01:05:02;;;;;;;19.70;12.85;;;;;;;;;;5036332;28;20075;-62
2023/11/08 01:07:28;;;;;;;21.85;13.05;;;;;;;;;;5035664;28;20065;-62
2023/11/08 01:09:53;;;;;;;17.83;13.00;;;;;;;;;;5035680;28;20028;-62
2023/11/08 01:12:19;;;;;;;20.90;12.55;;;;;;;;;;5035784;28;20396;-62
2023/11/08 01:14:44;;;;;;;17.80;12.15;;;;;;;;;;5035272;28;20025;-62
2023/11/08 01:17:10;;;;;;;18.67;12.50;;;;;;;;;;5017875;28;20095;-63
2023/11/08 01:19:36;;;;;;;18.98;13.45;;;;;;;;;;5035822;28;20085;-63
2023/11/08 01:22:05;;;;;;;20.90;13.13;;;;;;;;;;5051442;28;20104;-63
2023/11/08 01:24:34;;;;;;;18.70;13.38;;;;;;;;;;5035395;28;20033;-63
2023/11/08 01:27:01;;;;;;;26.73;19.30;;;;;;;;;;5035115;28;20032;-63
2023/11/08 01:29:27;;;;;;;23.20;14.68;;;;;;;;;;5016403;28;20476;-63
2023/11/08 01:31:54;;;;;;;20.17;14.20;;;;;;;;;;5017180;28;20033;-63
2023/11/08 01:34:19;;;;;;;19.50;13.18;;;;;;;;;;5034771;28;20174;-63
2023/11/08 01:36:45;;;;;;;21.48;14.15;;;;;;;;;;5035095;28;20025;-63
2023/11/08 01:39:10;;;;;;;20.60;13.82;;;;;;;;;;5034788;28;20026;-62
2023/11/08 01:41:35;;;;;;;19.67;12.88;;;;;;;;;;5035595;28;20029;-62
2023/11/08 01:44:03;;;;;;;21.38;12.68;;;;;;;;;;5016940;28;20033;-62
2023/11/08 01:46:28;;;;;;;19.52;12.35;;;;;;;;;;5034521;28;20112;-63
2023/11/08 01:48:54;;;;;;;18.80;11.88;;;;;;;;;;5033990;28;20120;-62
2023/11/08 01:51:20;;;;;;;16.48;11.68;;;;;;;;;;5034957;28;20033;-63
2023/11/08 01:53:47;;;;;;;20.73;11.77;;;;;;;;;;5016877;28;20037;-63
2023/11/08 01:56:13;;;;;;;19.00;11.98;;;;;;;;;;5035044;28;20511;-62
2023/11/08 01:58:38;;;;;;;20.90;12.27;;;;;;;;;;5017048;28;20021;-62
2023/11/08 02:01:10;;;;;;;20.30;12.40;;;;;;;;;;5016822;28;20030;-63
2023/11/08 02:03:39;;;;;;;20.15;13.25;;;;;;;;;;5016991;28;20026;-63
2023/11/08 02:06:06;;;;;;;19.27;13.43;;;;;;;;;;5035199;28;20034;-62
2023/11/08 02:08:33;;;;;;;18.45;12.00;;;;;;;;;;5034503;28;20030;-62
2023/11/08 02:10:58;;;;;;;17.90;11.88;;;;;;;;;;5035040;28;20029;-62
2023/11/08 02:13:24;;;;;;;17.65;11.60;;;;;;;;;;5016738;28;20037;-62
2023/11/08 02:15:49;;;;;;;16.83;12.30;;;;;;;;;;5034674;28;20029;-63
2023/11/08 02:18:17;;;;;;;18.05;11.15;;;;;;;;;;5034586;28;20037;-62
2023/11/08 02:20:44;;;;;;;20.52;12.93;;;;;;;;;;5034447;28;20480;-63
2023/11/08 02:23:09;;;;;;;13.57;11.18;;;;;;;;;;5034598;28;20013;-62
2023/11/08 02:25:34;;;;;;;16.90;11.10;;;;;;;;;;5016699;28;20044;-62
2023/11/08 02:28:00;;;;;;;14.43;10.80;;;;;;;;;;5034672;28;20116;-62
2023/11/08 02:30:25;;;;;;;15.77;11.02;;;;;;;;;;5034098;28;20026;-62
2023/11/08 02:32:52;;;;;;;15.98;10.90;;;;;;;;;;5034101;28;20033;-62
2023/11/08 02:35:17;;;;;;;16.17;10.70;;;;;;;;;;5016938;28;20525;-62
2023/11/08 02:37:43;;;;;;;13.73;10.32;;;;;;;;;;5016903;28;20125;-62
2023/11/08 02:40:09;;;;;;;15.15;10.82;;;;;;;;;;5016843;28;20119;-62
2023/11/08 02:42:34;;;;;;;13.60;10.20;;;;;;;;;;5015978;28;20112;-62
2023/11/08 02:45:00;;;;;;;18.15;10.63;;;;;;;;;;5034007;28;20033;-62
2023/11/08 02:47:25;;;;;;;16.33;10.98;;;;;;;;;;5016434;28;20037;-63
2023/11/08 02:49:58;;;;;;;19.25;11.43;;;;;;;;;;5034312;28;20037;-63
2023/11/08 02:52:24;;;;;;;16.10;11.15;;;;;;;;;;5016497;28;20029;-63
2023/11/08 02:54:51;;;;;;;15.32;10.05;;;;;;;;;;5033588;28;20028;-63
2023/11/08 02:57:17;;;;;;;15.93;10.45;;;;;;;;;;5033816;28;20029;-63
2023/11/08 02:59:42;;;;;;;15.45;9.90;;;;;;;;;;5016691;28;20036;-63
2023/11/08 03:02:08;;;;;;;17.00;11.15;;;;;;;;;;5034363;28;20030;-63
2023/11/08 03:04:34;;;;;;;16.10;10.65;;;;;;;;;;5033692;28;20511;-63
2023/11/08 03:06:59;;;;;;;14.50;10.40;;;;;;;;;;5016247;28;20044;-63
2023/11/08 03:09:25;;;;;;;14.63;10.00;;;;;;;;;;5034203;28;20461;-63
2023/11/08 03:11:50;;;;;;;15.95;11.05;;;;;;;;;;5034229;28;20029;-63
2023/11/08 03:14:16;;;;;;;15.32;11.25;;;;;;;;;;5016039;28;20463;-62
2023/11/08 03:16:41;;;;;;;16.67;11.48;;;;;;;;;;5015686;28;20042;-62
2023/11/08 03:19:10;;;;;;;15.98;11.35;;;;;;;;;;5016891;28;20095;-62
2023/11/08 03:21:35;;;;;;;18.70;12.10;;;;;;;;;;5015861;28;20041;-62
2023/11/08 03:24:00;;;;;;;18.63;12.13;;;;;;;;;;5016324;28;20461;-62
2023/11/08 03:26:26;;;;;;;17.52;11.93;;;;;;;;;;5033231;28;20103;-62
2023/11/08 03:28:52;;;;;;;17.63;12.43;;;;;;;;;;5033996;28;20524;-62
2023/11/08 03:31:17;;;;;;;18.63;12.25;;;;;;;;;;5033891;28;20029;-62
2023/11/08 03:33:43;;;;;;;16.55;10.90;;;;;;;;;;5015156;28;20043;-62
2023/11/08 03:36:08;;;;;;;19.45;11.75;;;;;;;;;;5033222;28;20041;-62
2023/11/08 03:38:33;;;;;;;14.75;10.70;;;;;;;;;;5033546;28;20103;-62
2023/11/08 03:40:59;;;;;;;14.48;11.27;;;;;;;;;;5033458;28;20053;-62
2023/11/08 03:43:24;;;;;;;17.23;11.15;;;;;;;;;;5016108;28;20108;-62
2023/11/08 03:45:50;;;;;;;17.63;12.20;;;;;;;;;;5032655;28;20446;-62
2023/11/08 03:48:15;;;;;;;18.13;12.25;;;;;;;;;;5033132;28;20030;-61
2023/11/08 03:50:41;;;;;;;17.70;12.32;;;;;;;;;;5033522;28;20033;-62
2023/11/08 03:53:07;;;;;;;20.77;13.43;;;;;;;;;;5033468;28;20031;-61
2023/11/08 03:55:33;;;;;;;17.52;12.07;;;;;;;;;;5016084;28;20029;-61
2023/11/08 03:57:59;;;;;;;17.10;12.23;;;;;;;;;;5033460;28;20021;-61
2023/11/08 04:00:25;;;;;;;20.35;12.45;;;;;;;;;;5033754;28;20127;-63
2023/11/08 04:02:51;;;;;;;19.33;12.85;;;;;;;;;;5016383;28;20369;-63
2023/11/08 04:05:16;;;;;;;17.45;12.63;;;;;;;;;;5033279;28;20030;-62
2023/11/08 04:07:42;;;;;;;18.75;12.70;;;;;;;;;;5033043;28;20049;-62
2023/11/08 04:10:10;;;;;;;18.05;12.68;;;;;;;;;;5036703;28;20041;-63
2023/11/08 04:12:36;;;;;;;18.60;12.00;;;;;;;;;;5036890;28;20036;-62
2023/11/08 04:15:02;;;;;;;17.02;11.75;;;;;;;;;;5036341;28;20039;-62
2023/11/08 04:17:27;;;;;;;17.00;11.60;;;;;;;;;;5036780;28;20029;-62
2023/11/08 04:19:54;;;;;;;19.50;11.93;;;;;;;;;;5037034;28;20033;-62
2023/11/08 04:22:19;;;;;;;18.02;12.55;;;;;;;;;;5036661;28;20452;-62
2023/11/08 04:24:45;;;;;;;18.70;12.43;;;;;;;;;;5036576;28;20049;-63
2023/11/08 04:27:11;;;;;;;17.73;12.05;;;;;;;;;;5018905;28;20037;-62
2023/11/08 04:29:41;;;;;;;18.83;12.70;;;;;;;;;;5037791;28;20037;-61
2023/11/08 04:32:07;;;;;;;21.27;13.10;;;;;;;;;;5056382;28;20110;-61
2023/11/08 04:34:33;;;;;;;19.42;13.23;;;;;;;;;;5054702;28;20453;-62
2023/11/08 04:36:58;;;;;;;19.00;12.57;;;;;;;;;;5051401;28;20483;-61
2023/11/08 04:39:25;;;;;;;22.13;13.32;;;;;;;;;;5045632;28;20033;-62
2023/11/08 04:41:51;;;;;;;25.58;16.65;;;;;;;;;;5055035;28;20036;-61
2023/11/08 04:44:17;;;;;;;27.35;17.98;;;;;;;;;;5037697;28;20392;-61
2023/11/08 04:46:42;;;;;;;23.50;15.68;;;;;;;;;;5051404;28;20108;-61
2023/11/08 04:49:08;;;;;;;21.25;13.73;;;;;;;;;;5036225;28;20030;-60
2023/11/08 04:51:33;;;;;;;25.27;14.65;;;;;;;;;;5035732;28;20037;-62
2023/11/08 04:53:58;;;;;;;23.90;14.75;;;;;;;;;;5035329;28;20032;-62
2023/11/08 04:56:24;;;;;;;21.27;14.13;;;;;;;;;;5034634;28;20021;-62
2023/11/08 04:58:49;;;;;;;20.33;13.30;;;;;;;;;;5002051;28;20365;-61
2023/11/08 05:01:15;;;;;;;20.73;13.68;;;;;;;;;;5035578;28;20060;-61
2023/11/08 05:03:40;;;;;;;21.63;13.77;;;;;;;;;;5034897;28;20025;-61
2023/11/08 05:06:06;;;;;;;18.95;13.25;;;;;;;;;;5035319;28;20393;-62
2023/11/08 05:08:31;;;;;;;23.38;14.30;;;;;;;;;;5036097;28;20056;-62
2023/11/08 05:10:56;;;;;;;20.52;13.48;;;;;;;;;;5035642;28;20473;-62
2023/11/08 05:13:24;;;;;;;28.30;17.23;;;;;;;;;;5036227;28;20433;-62
2023/11/08 05:15:50;;;;;;;29.30;18.92;;;;;;;;;;5035261;28;20152;-62
2023/11/08 05:18:15;;;;;;;34.15;20.77;;;;;;;;;;5035604;28;20108;-62
2023/11/08 05:20:43;;;;;;;33.88;20.10;;;;;;;;;;5034799;28;20545;-62
2023/11/08 05:23:08;;;;;;;32.28;20.33;;;;;;;;;;5035997;28;20028;-65
2023/11/08 05:25:34;;;;;;;31.83;20.17;;;;;;;;;;5035446;28;20104;-65
2023/11/08 05:27:59;;;;;;;37.65;20.38;;;;;;;;;;5017441;28;20096;-66
2023/11/08 05:30:24;;;;;;;27.73;17.83;;;;;;;;;;5035560;28;20422;-67
2023/11/08 05:32:50;;;;;;;24.90;15.55;;;;;;;;;;5035294;28;20521;-67
2023/11/08 05:35:15;;;;;;;25.30;15.13;;;;;;;;;;5017256;28;20048;-67
2023/11/08 05:37:41;;;;;;;27.15;15.07;;;;;;;;;;5035641;28;20026;-67
2023/11/08 05:40:14;;;;;;;27.88;15.70;;;;;;;;;;5035248;28;20104;-67
2023/11/08 05:42:40;;;;;;;26.98;15.95;;;;;;;;;;5035428;28;20056;-67
2023/11/08 05:45:06;;;;;;;31.05;16.48;;;;;;;;;;5035099;28;20071;-67
2023/11/08 05:47:31;;;;;;;32.70;17.42;;;;;;;;;;5017075;28;20033;-67
2023/11/08 05:49:57;;;;;;;30.40;16.80;;;;;;;;;;5034274;28;20082;-67
2023/11/08 05:52:23;;;;;;;26.63;16.05;;;;;;;;;;5034422;28;20041;-66
2023/11/08 05:54:49;;;;;;;25.27;15.90;;;;;;;;;;5016649;28;20065;-66
2023/11/08 05:57:14;;;;;;;29.30;17.15;;;;;;;;;;5016448;28;20033;-66
2023/11/08 05:59:43;;;;;;;30.15;16.50;;;;;;;;;;4999086;28;20381;-66
2023/11/08 06:02:09;;;;;;;25.27;17.67;;;;;;;;;;5033747;28;20025;-66
2023/11/08 06:04:34;;;;;;;41.08;20.67;;;;;;;;;;5034220;28;20037;-66
2023/11/08 06:07:00;;;;;;;35.75;20.02;;;;;;;;;;5016237;28;20041;-66
2023/11/08 06:09:27;;;;;;;37.83;20.00;;;;;;;;;;5034216;28;20079;-66
2023/11/08 06:11:52;;;;;;;26.38;17.85;;;;;;;;;;5016310;28;20043;-66
2023/11/08 06:14:18;;;;;;;33.10;19.27;;;;;;;;;;5033836;28;20711;-66
2023/11/08 06:16:43;;;;;;;28.52;17.73;;;;;;;;;;5033610;28;20037;-66
2023/11/08 06:19:09;;;;;;;28.50;18.88;;;;;;;;;;4999809;28;20060;-66
2023/11/08 06:21:35;;;;;;;25.38;16.77;;;;;;;;;;5033325;28;20519;-66
2023/11/08 06:24:01;;;;;;;23.35;16.38;;;;;;;;;;5033521;28;20029;-66
2023/11/08 06:26:26;;;;;;;28.20;20.38;;;;;;;;;;5033354;28;20022;-65
2023/11/08 06:28:53;;;;;;;36.42;25.45;;;;;;;;;;5032921;28;20414;-65
2023/11/08 06:31:20;;;;;;;35.55;23.52;;;;;;;;;;5033696;28;20044;-74
2023/11/08 06:33:49;;;;;;;29.63;19.13;;;;;;;;;;5033952;28;20124;-63
2023/11/08 06:36:15;;;;;;;28.23;16.95;;;;;;;;;;5033995;28;20057;-63
2023/11/08 06:38:41;;;;;;;24.67;15.48;;;;;;;;;;5034472;28;20060;-63
2023/11/08 06:41:06;;;;;;;22.17;15.32;;;;;;;;;;5033998;28;20053;-63
2023/11/08 06:43:31;;;;;;;25.05;15.27;;;;;;;;;;5034433;28;20041;-63
2023/11/08 06:45:57;;;;;;;26.58;17.27;;;;;;;;;;5034377;28;20040;-63
2023/11/08 06:48:23;;;;;;;27.67;17.27;;;;;;;;;;5033790;28;20020;-63
2023/11/08 06:50:51;;;;;;;27.20;17.55;;;;;;;;;;5033614;28;20393;-63
2023/11/08 06:53:17;;;;;;;23.35;15.23;;;;;;;;;;4997981;28;20484;-63
2023/11/08 06:55:45;;;;;;;22.67;13.93;;;;;;;;;;5032080;28;20048;-63
2023/11/08 06:58:12;;;;;;;22.65;14.27;;;;;;;;;;5033620;28;20021;-63
2023/11/08 07:00:38;;;;;;;21.85;14.45;;;;;;;;;;5031811;28;20119;-63
2023/11/08 07:03:04;;;;;;;28.10;17.65;;;;;;;;;;5031660;28;20056;-63
2023/11/08 07:05:31;;;;;;;38.70;21.30;;;;;;;;;;5031600;28;20040;-63
2023/11/08 07:07:56;;;;;;;38.28;22.38;;;;;;;;;;5031589;28;20036;-63
2023/11/08 07:10:21;;;;;;;38.80;21.45;;;;;;;;;;5031875;28;20029;-63
2023/11/08 07:12:47;;;;;;;35.35;19.05;;;;;;;;;;5031467;28;20397;-63
2023/11/08 07:15:12;;;;;;;36.88;20.08;;;;;;;;;;5031332;28;20029;-63
2023/11/08 07:17:38;;;;;;;38.88;22.17;;;;;;;;;;5013864;28;20041;-63
2023/11/08 07:20:06;;;;;;;31.35;19.27;;;;;;;;;;5013925;28;20017;-63
2023/11/08 07:22:32;;;;;;;21.08;14.07;;;;;;;;;;5013706;28;20033;-63
2023/11/08 07:24:57;;;;;;;17.25;12.13;;;;;;;;;;5031356;28;20076;-63
2023/11/08 07:27:23;;;;;;;17.58;11.68;;;;;;;;;;5033328;28;20030;-63
2023/11/08 07:29:48;;;;;;;20.00;12.07;;;;;;;;;;5033888;28;20037;-63
2023/11/08 07:32:14;;;;;;;17.08;12.70;;;;;;;;;;5033320;28;20091;-61
2023/11/08 07:34:40;;;;;;;20.10;14.13;;;;;;;;;;5033756;28;20030;-61
2023/11/08 07:37:05;;;;;;;20.50;13.13;;;;;;;;;;5033855;28;20021;-61
2023/11/08 07:39:31;;;;;;;18.30;13.50;;;;;;;;;;5033272;28;20494;-61
2023/11/08 07:41:56;;;;;;;18.58;12.52;;;;;;;;;;5033536;28;20450;-61
2023/11/08 07:44:22;;;;;;;20.77;13.48;;;;;;;;;;5018524;28;20374;-61
2023/11/08 07:46:48;;;;;;;20.27;13.52;;;;;;;;;;5037108;28;20035;-61
2023/11/08 07:51:54;;;;;;;19.90;12.25;;;;;;;;;;5044841;23;20740;-61
2023/11/08 07:54:20;;;;;;;16.83;11.13;;;;;;;;;;4992045;23;20041;-61
2023/11/08 07:56:48;;;;;;;15.50;10.80;;;;;;;;;;5033005;23;20180;-93
2023/11/08 07:59:16;;;;;;;15.93;10.73;;;;;;;;;;5042374;28;20065;-94
2023/11/08 08:01:52;;;;;;;13.27;9.63;;;;;;;;;;5036317;28;20056;-94
2023/11/08 08:04:25;;;;;;;12.27;8.20;;;;;;;;;;5020053;28;20489;-92
2023/11/08 08:06:54;;;;;;;13.98;8.65;;;;;;;;;;5019949;28;20029;-93
2023/11/08 08:09:32;;;;;;;13.63;8.18;;;;;;;;;;5004829;28;20063;-94
2023/11/08 08:12:07;;;;;;;8.13;6.22;;;;;;;;;;5020415;28;20078;-91
2023/11/08 08:14:40;;;;;;;7.93;5.22;;;;;;;;;;5003693;28;20037;-92
2023/11/08 08:17:06;;;;;;;6.18;5.57;;;;;;;;;;5020224;28;20032;-93
2023/11/08 08:19:36;;;;;;;7.57;5.57;;;;;;;;;;5003181;28;20018;-93
2023/11/08 08:22:03;;;;;;;6.82;5.40;;;;;;;;;;5003554;28;20041;-93
2023/11/08 08:24:31;;;;;;;5.88;5.03;;;;;;;;;;5019717;28;20041;-94
2023/11/08 08:27:05;;;;;;;6.55;5.22;;;;;;;;;;5002984;28;20459;-93
2023/11/08 08:29:30;;;;;;;6.10;5.50;;;;;;;;;;5019816;28;20458;-93
2023/11/08 08:31:56;;;;;;;6.75;5.20;;;;;;;;;;5003114;28;20057;-93
2023/11/08 08:34:29;;;;;;;5.43;4.93;;;;;;;;;;5003201;28;20545;-93
2023/11/08 08:36:57;;;;;;;6.25;5.03;;;;;;;;;;5003669;28;20387;-92
2023/11/08 08:39:27;;;;;;;5.97;5.15;;;;;;;;;;5003367;28;20108;-93
2023/11/08 08:41:53;;;;;;;6.60;5.57;;;;;;;;;;5003437;28;20554;-93
2023/11/08 08:44:18;;;;;;;8.25;5.70;;;;;;;;;;5003050;28;20304;-94
2023/11/08 08:46:46;;;;;;;11.68;6.07;;;;;;;;;;5003674;28;20022;-93
2023/11/08 08:49:12;;;;;;;7.60;4.93;;;;;;;;;;5003113;28;20029;-93
2023/11/08 08:51:38;;;;;;;4.80;4.32;;;;;;;;;;5002410;28;20060;-92
2023/11/08 08:54:06;;;;;;;4.47;3.85;;;;;;;;;;5002191;28;20068;-93
2023/11/08 08:56:35;;;;;;;6.00;4.15;;;;;;;;;;5002493;28;20061;-93
2023/11/08 08:59:01;;;;;;;5.35;4.50;;;;;;;;;;5002477;28;20025;-92
2023/11/08 09:01:35;;;;;;;13.07;10.15;;;;;;;;;;5004149;28;20058;-93
2023/11/08 09:04:03;;;;;;;6.28;4.95;;;;;;;;;;5034950;28;20036;-93
2023/11/08 09:06:31;;;;;;;6.35;4.38;;;;;;;;;;5002951;28;20468;-93
2023/11/08 09:08:56;;;;;;;6.90;4.55;;;;;;;;;;5002577;28;20048;-92
2023/11/08 09:11:27;;;;;;;5.03;4.28;;;;;;;;;;5002293;28;20120;-93
2023/11/08 09:13:53;;;;;;;5.45;4.00;;;;;;;;;;5002623;28;20029;-93
2023/11/08 09:16:20;;;;;;;4.22;3.80;;;;;;;;;;5018976;28;20467;-92
2023/11/08 09:18:45;;;;;;;5.10;4.20;;;;;;;;;;5002395;28;20018;-92
2023/11/08 09:21:11;;;;;;;4.68;3.85;;;;;;;;;;5001794;28;20037;-92
2023/11/08 09:23:42;;;;;;;4.30;3.80;;;;;;;;;;5018631;28;20391;-94
2023/11/08 09:26:09;;;;;;;5.05;3.92;;;;;;;;;;5018541;28;20034;-94
2023/11/08 09:28:35;;;;;;;3.70;3.25;;;;;;;;;;5018594;28;20108;-93
2023/11/08 09:31:00;;;;;;;4.53;3.38;;;;;;;;;;5002323;28;20455;-92
2023/11/08 09:33:28;;;;;;;4.25;3.55;;;;;;;;;;5018457;28;20029;-94
2023/11/08 09:35:56;;;;;;;3.65;3.13;;;;;;;;;;5018242;28;20033;-94
2023/11/08 09:38:22;;;;;;;3.47;3.17;;;;;;;;;;5018223;28;20061;-93
2023/11/08 09:40:49;;;;;;;3.38;3.08;;;;;;;;;;5002283;28;20017;-92
2023/11/08 09:43:21;;;;;;;3.15;2.83;;;;;;;;;;5001929;28;20057;-92
2023/11/08 09:45:47;;;;;;;3.13;2.80;;;;;;;;;;5018179;28;20499;-93
2023/11/08 09:48:12;;;;;;;3.33;2.90;;;;;;;;;;5001555;28;20069;-92
2023/11/08 09:50:48;;;;;;;2.85;2.65;;;;;;;;;;5019709;28;20022;-92
2023/11/08 09:53:14;;;;;;;4.90;4.15;;;;;;;;;;5001543;28;20452;-92
2023/11/08 09:55:44;;;;;;;2.85;2.65;;;;;;;;;;5017518;28;20045;-94
2023/11/08 09:58:12;;;;;;;3.78;3.28;;;;;;;;;;5001809;28;20029;-93
2023/11/08 10:00:40;;;;;;;3.75;3.03;;;;;;;;;;5001712;28;20548;-92
2023/11/08 10:03:11;;;;;;;2.90;2.70;;;;;;;;;;5017709;28;20395;-92
2023/11/08 10:05:37;;;;;;;3.17;2.35;;;;;;;;;;5001367;28;20026;-93
2023/11/08 10:08:12;;;;;;;2.60;2.38;;;;;;;;;;5002139;28;20026;-92
2023/11/08 10:10:48;;;;;;;2.17;1.58;;;;;;;;;;5001640;28;20025;-93
2023/11/08 10:13:17;;;;;;;2.20;2.10;;;;;;;;;;5001585;28;20078;-94
2023/11/08 10:15:54;;;;;;;3.27;2.37;;;;;;;;;;5017621;28;20025;-92
2023/11/08 10:18:26;;;;;;;2.58;2.00;;;;;;;;;;5001582;28;20268;-94
2023/11/08 10:20:55;;;;;;;2.58;2.38;;;;;;;;;;5017791;28;20076;-93
2023/11/08 10:23:26;;;;;;;1.60;1.50;;;;;;;;;;5000990;28;20033;-91
2023/11/08 10:26:14;;;;;;;2.20;2.00;;;;;;;;;;5001240;28;20044;-94
2023/11/08 10:29:07;;;;;;;2.00;1.90;;;;;;;;;;5017159;28;20033;-93
2023/11/08 10:31:39;;;;;;;1.73;1.63;;;;;;;;;;4998664;28;20038;-93
2023/11/08 10:34:06;;;;;;;4.88;2.30;;;;;;;;;;5017558;28;20036;-94
2023/11/08 10:36:34;;;;;;;2.25;2.00;;;;;;;;;;5000918;28;20029;-92
2023/11/08 10:39:16;;;;;;;2.22;2.00;;;;;;;;;;5017039;28;20176;-93
2023/11/08 10:41:45;;;;;;;1.90;1.75;;;;;;;;;;5000816;28;20026;-93
2023/11/08 10:44:22;;;;;;;2.15;1.83;;;;;;;;;;5001375;28;20022;-93
2023/11/08 10:46:57;;;;;;;2.13;1.98;;;;;;;;;;5000573;28;20025;-94
2023/11/08 10:49:25;;;;;;;2.97;2.22;;;;;;;;;;5017522;28;20029;-92
2023/11/08 10:51:53;;;;;;;2.28;2.10;;;;;;;;;;5000706;28;20030;-92
2023/11/08 10:54:23;;;;;;;3.22;2.58;;;;;;;;;;5000871;28;20061;-92
2023/11/08 10:56:54;;;;;;;2.92;2.40;;;;;;;;;;5000375;28;20053;-93
2023/11/08 10:59:26;;;;;;;2.28;2.08;;;;;;;;;;5000665;28;20038;-93
2023/11/08 11:01:52;;;;;;;2.38;2.15;;;;;;;;;;5000990;28;20026;-92
2023/11/08 11:04:23;;;;;;;2.35;2.15;;;;;;;;;;5017284;28;20124;-95
2023/11/08 11:06:50;;;;;;;2.03;1.90;;;;;;;;;;5016812;28;20025;-94
2023/11/08 11:09:18;;;;;;;2.53;2.33;;;;;;;;;;5000465;28;20029;-92
2023/11/08 11:11:46;;;;;;;2.30;2.05;;;;;;;;;;5016403;28;20034;-93
2023/11/08 11:14:45;;;;;;;1.90;1.80;;;;;;;;;;5000518;28;20029;-94
2023/11/08 11:17:14;;;;;;;2.22;2.03;;;;;;;;;;4984421;28;20040;-92
2023/11/08 11:19:42;;;;;;;2.85;2.65;;;;;;;;;;5004293;28;20471;-93
2023/11/08 11:22:15;;;;;;;3.53;3.23;;;;;;;;;;5004961;28;20044;-93
2023/11/08 11:24:45;;;;;;;2.67;2.47;;;;;;;;;;5005313;28;20025;-92
2023/11/08 11:27:33;;;;;;;2.75;2.47;;;;;;;;;;5021741;28;20033;-92
2023/11/08 11:30:33;;;;;;;2.17;1.88;;;;;;;;;;5020616;28;20026;-94
2023/11/08 11:33:09;;;;;;;7.88;5.05;;;;;;;;;;5004278;28;20041;-93
2023/11/08 11:35:35;;;;;;;4.90;3.05;;;;;;;;;;5021282;28;20128;-93
2023/11/08 11:38:17;;;;;;;6.43;4.40;;;;;;;;;;5020627;28;20106;-92
2023/11/08 11:41:02;;;;;;;12.30;5.68;;;;;;;;;;5020763;28;20048;-92
2023/11/08 11:43:38;;;;;;;5.45;3.58;;;;;;;;;;5020672;28;20044;-92
2023/11/08 11:46:17;;;;;;;4.50;3.08;;;;;;;;;;5020461;28;20029;-92
2023/11/08 11:48:52;;;;;;;5.47;3.60;;;;;;;;;;5004224;28;20029;-95
2023/11/08 11:54:46;;;;;;;6.53;3.95;;;;;;;;;;5006411;28;20533;-93
2023/11/08 11:57:33;;;;;;;6.65;3.60;;;;;;;;;;5020298;28;20045;-94
2023/11/08 12:00:13;;;;;;;5.07;3.13;;;;;;;;;;5020587;28;20036;-93
2023/11/08 12:06:16;;;;;;;4.10;2.47;;;;;;;;;;5013508;28;20446;-93
2023/11/08 12:08:46;;;;;;;3.80;2.53;;;;;;;;;;5003840;28;20022;-93
2023/11/08 12:11:19;;;;;;;2.53;2.33;;;;;;;;;;5004235;28;20083;-93
2023/11/08 12:14:05;;;;;;;2.47;2.03;;;;;;;;;;5003769;28;20052;-92
2023/11/08 12:16:41;;;;;;;2.85;2.25;;;;;;;;;;5020125;28;20037;-94
2023/11/08 12:19:33;;;;;;;2.55;2.22;;;;;;;;;;5019909;28;20048;-95
2023/11/08 12:22:09;;;;;;;5.05;2.65;;;;;;;;;;5005008;28;20029;-93
2023/11/08 12:24:45;;;;;;;4.22;2.58;;;;;;;;;;5019605;28;20038;-93
2023/11/08 12:27:15;;;;;;;3.78;2.70;;;;;;;;;;5003597;28;20025;-93
2023/11/08 12:29:48;;;;;;;3.33;2.53;;;;;;;;;;5004128;28;20056;-93
2023/11/08 12:32:50;;;;;;;4.45;2.92;;;;;;;;;;5019601;28;20030;-93
2023/11/08 12:35:20;;;;;;;3.63;2.70;;;;;;;;;;5003502;28;20040;-94
2023/11/08 12:37:55;;;;;;;2.60;2.38;;;;;;;;;;5019674;28;20038;-93
2023/11/08 12:40:27;;;;;;;3.45;2.28;;;;;;;;;;5019757;28;20033;-93
2023/11/08 12:42:55;;;;;;;3.42;2.53;;;;;;;;;;5019375;28;20468;-94
2023/11/08 12:45:34;;;;;;;3.00;2.50;;;;;;;;;;5002922;28;20032;-93
2023/11/08 12:48:13;;;;;;;3.10;2.53;;;;;;;;;;5019188;28;20025;-93
2023/11/08 12:50:47;;;;;;;2.80;2.40;;;;;;;;;;5002649;28;20479;-92
2023/11/08 12:53:28;;;;;;;;;;;;;;;;;;;;;
2023/11/08 12:56:09;;;;;;;2.45;2.25;;;;;;;;;;5018902;28;20054;-94
2023/11/08 12:58:43;;;;;;;2.75;2.55;;;;;;;;;;5003350;28;20037;-93
2023/11/08 13:01:24;;;;;;;3.17;2.50;;;;;;;;;;5018836;28;20116;-92
2023/11/08 13:03:55;;;;;;;2.65;2.20;;;;;;;;;;5003168;28;20025;-93
2023/11/08 13:06:47;;;;;;;3.58;2.45;;;;;;;;;;5019092;28;20121;-94
2023/11/08 13:09:25;;;;;;;4.43;2.83;;;;;;;;;;5003833;28;20095;-92
2023/11/08 13:14:47;;;;;;;;;;;;;;;;;;4974826;28;20043;-55
2023/11/08 13:17:13;;;;;;;2.22;1.58;;;;;;;;;;4971036;28;19913;-55
2023/11/08 13:19:39;;;;;;;3.35;1.60;;;;;;;;;;4974966;28;20105;-55
2023/11/08 13:22:04;;;;;;;2.00;1.52;;;;;;;;;;4976084;28;20077;-55
2023/11/08 13:24:29;;;;;;;2.22;1.70;;;;;;;;;;4973893;28;20034;-55
2023/11/08 13:26:54;;;;;;;1.88;1.58;;;;;;;;;;4975714;28;20039;-55
2023/11/08 13:29:20;;;;;;;2.05;1.40;;;;;;;;;;4975135;28;20045;-55
2023/11/08 13:31:48;;;;;;;1.40;1.30;;;;;;;;;;4976423;28;20034;-55
2023/11/08 13:34:14;;;;;;;2.25;1.20;;;;;;;;;;4976591;28;20022;-55
2023/11/08 13:36:39;;;;;;;2.72;1.30;;;;;;;;;;4975516;28;20093;-55
2023/11/08 13:39:07;;;;;;;2.67;1.17;;;;;;;;;;4974465;28;20027;-55
2023/11/08 13:41:32;;;;;;;3.47;1.42;;;;;;;;;;4973476;28;20026;-55
2023/11/08 13:43:58;;;;;;;1.75;1.20;;;;;;;;;;4989201;28;20134;-55
2023/11/08 13:46:23;;;;;;;1.30;1.20;;;;;;;;;;4973031;28;20023;-55
2023/11/08 13:48:49;;;;;;;2.38;1.35;;;;;;;;;;4974120;28;20038;-55
2023/11/08 13:51:14;;;;;;;1.05;1.00;;;;;;;;;;4974365;28;20030;-55
2023/11/08 13:53:39;;;;;;;1.50;1.10;;;;;;;;;;4976546;28;20086;-55
2023/11/08 13:56:06;;;;;;;1.95;1.27;;;;;;;;;;4974620;28;20049;-55
2023/11/08 13:58:31;;;;;;;2.47;1.30;;;;;;;;;;4975945;28;20476;-55
2023/11/08 14:00:57;;;;;;;2.22;1.25;;;;;;;;;;4975917;28;20027;-55
2023/11/08 14:03:23;;;;;;;1.50;1.40;;;;;;;;;;4976405;28;20058;-55
2023/11/08 14:05:49;;;;;;;2.72;1.52;;;;;;;;;;4975788;28;20482;-55
2023/11/08 14:08:14;;;;;;;2.60;1.45;;;;;;;;;;4974560;28;20031;-55
2023/11/08 14:10:40;;;;;;;2.00;1.15;;;;;;;;;;4975697;28;20038;-55
2023/11/08 14:13:05;;;;;;;1.20;1.10;;;;;;;;;;4975543;28;20104;-55
2023/11/08 14:15:30;;;;;;;1.75;1.15;;;;;;;;;;4975532;28;20433;-55
2023/11/08 14:17:57;;;;;;;1.25;1.10;;;;;;;;;;4975595;28;20528;-55
2023/11/08 14:20:22;;;;;;;1.67;1.30;;;;;;;;;;4975509;28;20045;-55
2023/11/08 14:22:48;;;;;;;1.25;1.15;;;;;;;;;;4990464;28;20039;-55
2023/11/08 14:25:14;;;;;;;3.03;1.27;;;;;;;;;;4975484;28;20029;-55
2023/11/08 14:27:40;;;;;;;1.35;1.25;;;;;;;;;;4975668;28;20381;-55
2023/11/08 14:30:06;;;;;;;1.58;1.15;;;;;;;;;;4974508;28;20038;-55
2023/11/08 14:32:31;;;;;;;1.33;1.23;;;;;;;;;;4975619;28;20042;-55
2023/11/08 14:34:57;;;;;;;1.00;1.00;;;;;;;;;;4974993;28;20398;-55
2023/11/08 14:37:22;;;;;;;1.85;1.15;;;;;;;;;;4975242;28;20031;-55
2023/11/08 14:39:50;;;;;;;1.88;1.23;;;;;;;;;;4975227;28;20081;-55
2023/11/08 14:42:16;;;;;;;1.13;1.05;;;;;;;;;;4975460;28;20035;-55
2023/11/08 14:44:47;;;;;;;1.92;1.48;;;;;;;;;;4975136;28;20022;-55
2023/11/08 14:47:13;;;;;;;1.17;1.10;;;;;;;;;;4975104;28;20114;-55
2023/11/08 14:49:38;;;;;;;1.42;1.15;;;;;;;;;;4975599;28;20118;-55